sensor_id;sensor_type;location;lat;lon;timestamp;pressure;altitude;pressure_sealevel;temperature;humidity
34241;BME280;20503;50.200;19.508;2023-05-20T00:02:12;102296.72;;;9.93;100.00
34241;BME280;20503;50.200;19.508;2023-05-20T00:07:19;102279.97;;;9.96;100.00
34241;BME280;20503;50.200;19.508;2023-05-20T00:12:27;102278.59;;;9.92;100.00
34241;BME280;20503;50.200;19.508;2023-05-20T00:17:35;102277.91;;;9.90;100.00
34241;BME280;20503;50.200;19.508;2023-05-20T00:22:43;102287.98;;;9.90;100.00
34241;BME280;20503;50.200;19.508;2023-05-20T00:27:50;102283.38;;;9.90;100.00
34241;BME280;20503;50.200;19.508;2023-05-20T00:32:58;102284.37;;;9.81;100.00
34241;BME280;20503;50.200;19.508;2023-05-20T00:38:06;102279.92;;;9.80;100.00
34241;BME280;20503;50.200;19.508;2023-05-20T00:43:14;102270.84;;;9.72;100.00
34241;BME280;20503;50.200;19.508;2023-05-20T00:48:22;102272.36;;;9.66;100.00
34241;BME280;20503;50.200;19.508;2023-05-20T00:53:30;102261.46;;;9.74;100.00
34241;BME280;20503;50.200;19.508;2023-05-20T00:58:38;102251.55;;;9.81;100.00
34241;BME280;20503;50.200;19.508;2023-05-20T01:03:45;102237.89;;;9.81;100.00
34241;BME280;20503;50.200;19.508;2023-05-20T01:08:53;102246.12;;;9.89;100.00
34241;BME280;20503;50.200;19.508;2023-05-20T01:14:05;102236.20;;;9.96;100.00
34241;BME280;20503;50.200;19.508;2023-05-20T01:24:21;102238.13;;;10.04;100.00
34241;BME280;20503;50.200;19.508;2023-05-20T01:29:26;102234.54;;;10.11;100.00
34241;BME280;20503;50.200;19.508;2023-05-20T01:34:31;102238.30;;;10.18;100.00
34241;BME280;20503;50.200;19.508;2023-05-20T01:39:39;102231.48;;;10.22;100.00
34241;BME280;20503;50.200;19.508;2023-05-20T01:44:46;102236.94;;;10.30;100.00
34241;BME280;20503;50.200;19.508;2023-05-20T01:49:53;102242.75;;;10.35;100.00
34241;BME280;20503;50.200;19.508;2023-05-20T01:55:00;102231.29;;;10.40;100.00
34241;BME280;20503;50.200;19.508;2023-05-20T02:00:10;102234.72;;;10.42;100.00
34241;BME280;20503;50.200;19.508;2023-05-20T02:05:16;102248.59;;;10.40;100.00
34241;BME280;20503;50.200;19.508;2023-05-20T02:10:23;102240.86;;;10.44;100.00
34241;BME280;20503;50.200;19.508;2023-05-20T02:15:31;102243.96;;;10.49;100.00
34241;BME280;20503;50.200;19.508;2023-05-20T02:20:38;102262.26;;;10.48;100.00
34241;BME280;20503;50.200;19.508;2023-05-20T02:25:46;102251.30;;;10.48;100.00
34241;BME280;20503;50.200;19.508;2023-05-20T02:30:54;102252.17;;;10.49;100.00
34241;BME280;20503;50.200;19.508;2023-05-20T02:36:01;102252.34;;;10.47;100.00
34241;BME280;20503;50.200;19.508;2023-05-20T02:41:09;102248.21;;;10.51;100.00
34241;BME280;20503;50.200;19.508;2023-05-20T02:46:16;102260.04;;;10.52;100.00
34241;BME280;20503;50.200;19.508;2023-05-20T02:51:24;102245.32;;;10.53;100.00
34241;BME280;20503;50.200;19.508;2023-05-20T02:56:31;102251.32;;;10.56;100.00
34241;BME280;20503;50.200;19.508;2023-05-20T03:01:39;102263.63;;;10.60;100.00
34241;BME280;20503;50.200;19.508;2023-05-20T03:06:47;102252.32;;;10.63;100.00
34241;BME280;20503;50.200;19.508;2023-05-20T03:11:54;102261.90;;;10.67;100.00
34241;BME280;20503;50.200;19.508;2023-05-20T03:17:02;102257.80;;;10.71;100.00
34241;BME280;20503;50.200;19.508;2023-05-20T03:22:09;102266.36;;;10.76;100.00
34241;BME280;20503;50.200;19.508;2023-05-20T03:27:17;102256.75;;;10.80;100.00
34241;BME280;20503;50.200;19.508;2023-05-20T03:32:24;102258.30;;;10.83;100.00
34241;BME280;20503;50.200;19.508;2023-05-20T03:37:31;102260.33;;;10.89;100.00
34241;BME280;20503;50.200;19.508;2023-05-20T03:42:39;102253.83;;;10.98;100.00
34241;BME280;20503;50.200;19.508;2023-05-20T03:47:46;102251.39;;;11.03;100.00
34241;BME280;20503;50.200;19.508;2023-05-20T03:52:54;102257.39;;;11.06;100.00
34241;BME280;20503;50.200;19.508;2023-05-20T03:58:01;102248.62;;;11.11;100.00
34241;BME280;20503;50.200;19.508;2023-05-20T04:03:09;102264.38;;;11.17;100.00
34241;BME280;20503;50.200;19.508;2023-05-20T04:08:17;102255.95;;;11.26;100.00
34241;BME280;20503;50.200;19.508;2023-05-20T04:13:25;102267.06;;;11.32;100.00
34241;BME280;20503;50.200;19.508;2023-05-20T04:18:32;102265.52;;;11.38;100.00
34241;BME280;20503;50.200;19.508;2023-05-20T04:23:40;102266.50;;;11.45;100.00
34241;BME280;20503;50.200;19.508;2023-05-20T04:28:48;102265.98;;;11.49;100.00
34241;BME280;20503;50.200;19.508;2023-05-20T04:33:56;102275.71;;;11.52;100.00
34241;BME280;20503;50.200;19.508;2023-05-20T04:39:04;102274.18;;;11.57;100.00
34241;BME280;20503;50.200;19.508;2023-05-20T04:44:12;102266.82;;;11.58;100.00
34241;BME280;20503;50.200;19.508;2023-05-20T04:49:20;102279.95;;;11.70;100.00
34241;BME280;20503;50.200;19.508;2023-05-20T04:54:27;102279.95;;;11.70;100.00
34241;BME280;20503;50.200;19.508;2023-05-20T04:59:35;102285.07;;;11.73;100.00
34241;BME280;20503;50.200;19.508;2023-05-20T05:04:42;102284.17;;;11.81;100.00
34241;BME280;20503;50.200;19.508;2023-05-20T05:09:50;102282.75;;;11.93;100.00
34241;BME280;20503;50.200;19.508;2023-05-20T05:14:58;102283.95;;;11.90;100.00
34241;BME280;20503;50.200;19.508;2023-05-20T05:20:08;102290.45;;;11.97;100.00
34241;BME280;20503;50.200;19.508;2023-05-20T05:25:13;102286.07;;;12.11;100.00
34241;BME280;20503;50.200;19.508;2023-05-20T05:30:21;102287.23;;;12.16;100.00
34241;BME280;20503;50.200;19.508;2023-05-20T05:35:28;102282.24;;;12.20;100.00
34241;BME280;20503;50.200;19.508;2023-05-20T05:40:36;102287.54;;;12.44;100.00
34241;BME280;20503;50.200;19.508;2023-05-20T05:45:44;102294.99;;;12.58;100.00
34241;BME280;20503;50.200;19.508;2023-05-20T05:50:51;102290.27;;;12.66;100.00
34241;BME280;20503;50.200;19.508;2023-05-20T06:01:13;102273.14;;;12.79;100.00
34241;BME280;20503;50.200;19.508;2023-05-20T06:06:15;102285.73;;;12.96;100.00
34241;BME280;20503;50.200;19.508;2023-05-20T06:11:23;102278.74;;;13.08;100.00
34241;BME280;20503;50.200;19.508;2023-05-20T06:16:31;102272.59;;;13.34;100.00
34241;BME280;20503;50.200;19.508;2023-05-20T06:21:39;102275.42;;;13.55;100.00
34241;BME280;20503;50.200;19.508;2023-05-20T06:26:47;102269.53;;;13.58;100.00
34241;BME280;20503;50.200;19.508;2023-05-20T06:31:54;102264.12;;;13.50;100.00
34241;BME280;20503;50.200;19.508;2023-05-20T06:37:03;102262.59;;;13.62;100.00
34241;BME280;20503;50.200;19.508;2023-05-20T06:42:11;102254.85;;;13.87;100.00
34241;BME280;20503;50.200;19.508;2023-05-20T06:47:18;102263.83;;;14.10;100.00
34241;BME280;20503;50.200;19.508;2023-05-20T06:52:26;102255.28;;;14.05;100.00
34241;BME280;20503;50.200;19.508;2023-05-20T06:57:34;102261.07;;;14.10;100.00
34241;BME280;20503;50.200;19.508;2023-05-20T07:02:41;102250.73;;;13.97;100.00
34241;BME280;20503;50.200;19.508;2023-05-20T07:07:49;102262.02;;;14.17;100.00
34241;BME280;20503;50.200;19.508;2023-05-20T07:12:57;102249.44;;;14.29;100.00
34241;BME280;20503;50.200;19.508;2023-05-20T07:18:04;102244.16;;;14.13;100.00
34241;BME280;20503;50.200;19.508;2023-05-20T07:23:12;102241.57;;;14.26;100.00
34241;BME280;20503;50.200;19.508;2023-05-20T07:28:20;102239.54;;;13.99;100.00
34241;BME280;20503;50.200;19.508;2023-05-20T07:33:27;102240.38;;;14.35;100.00
34241;BME280;20503;50.200;19.508;2023-05-20T07:38:35;102235.92;;;14.34;100.00
34241;BME280;20503;50.200;19.508;2023-05-20T07:43:43;102241.52;;;14.68;100.00
34241;BME280;20503;50.200;19.508;2023-05-20T07:48:50;102237.37;;;14.78;100.00
34241;BME280;20503;50.200;19.508;2023-05-20T07:53:59;102240.52;;;15.03;100.00
34241;BME280;20503;50.200;19.508;2023-05-20T07:59:06;102250.55;;;15.10;100.00
34241;BME280;20503;50.200;19.508;2023-05-20T08:04:14;102250.66;;;14.68;100.00
34241;BME280;20503;50.200;19.508;2023-05-20T08:09:21;102244.69;;;14.65;100.00
34241;BME280;20503;50.200;19.508;2023-05-20T08:14:30;102251.09;;;14.72;100.00
34241;BME280;20503;50.200;19.508;2023-05-20T08:19:37;102259.65;;;14.56;100.00
34241;BME280;20503;50.200;19.508;2023-05-20T08:24:45;102245.23;;;14.81;100.00
34241;BME280;20503;50.200;19.508;2023-05-20T08:29:53;102234.78;;;14.49;100.00
34241;BME280;20503;50.200;19.508;2023-05-20T08:35:02;102237.34;;;14.99;100.00
34241;BME280;20503;50.200;19.508;2023-05-20T08:40:10;102227.44;;;14.56;100.00
34241;BME280;20503;50.200;19.508;2023-05-20T08:45:18;102229.22;;;15.25;100.00
34241;BME280;20503;50.200;19.508;2023-05-20T08:50:24;102233.02;;;15.58;100.00
34241;BME280;20503;50.200;19.508;2023-05-20T08:55:41;102222.22;;;15.63;100.00
34241;BME280;20503;50.200;19.508;2023-05-20T09:00:42;102223.23;;;15.49;100.00
34241;BME280;20503;50.200;19.508;2023-05-20T09:05:48;102244.83;;;15.39;100.00
34241;BME280;20503;50.200;19.508;2023-05-20T09:10:55;102238.06;;;15.48;100.00
34241;BME280;20503;50.200;19.508;2023-05-20T09:16:04;102228.21;;;15.73;100.00
34241;BME280;20503;50.200;19.508;2023-05-20T09:21:11;102235.35;;;16.14;100.00
34241;BME280;20503;50.200;19.508;2023-05-20T09:26:19;102223.18;;;15.96;100.00
34241;BME280;20503;50.200;19.508;2023-05-20T09:31:32;102246.29;;;15.75;100.00
34241;BME280;20503;50.200;19.508;2023-05-20T09:36:36;102218.45;;;15.77;100.00
34241;BME280;20503;50.200;19.508;2023-05-20T09:41:48;102234.32;;;16.28;100.00
34241;BME280;20503;50.200;19.508;2023-05-20T09:46:55;102228.48;;;15.91;100.00
34241;BME280;20503;50.200;19.508;2023-05-20T09:51:58;102240.93;;;16.34;100.00
34241;BME280;20503;50.200;19.508;2023-05-20T09:57:06;102234.95;;;16.24;100.00
34241;BME280;20503;50.200;19.508;2023-05-20T10:02:11;102224.59;;;15.66;100.00
34241;BME280;20503;50.200;19.508;2023-05-20T10:12:38;102221.07;;;15.91;100.00
34241;BME280;20503;50.200;19.508;2023-05-20T10:22:57;102210.77;;;16.45;100.00
34241;BME280;20503;50.200;19.508;2023-05-20T10:28:08;102221.84;;;16.52;100.00
34241;BME280;20503;50.200;19.508;2023-05-20T10:33:17;102215.25;;;16.59;100.00
34241;BME280;20503;50.200;19.508;2023-05-20T10:38:19;102220.78;;;16.66;100.00
34241;BME280;20503;50.200;19.508;2023-05-20T10:43:26;102215.85;;;16.94;100.00
34241;BME280;20503;50.200;19.508;2023-05-20T10:48:30;102209.39;;;17.25;100.00
34241;BME280;20503;50.200;19.508;2023-05-20T10:53:39;102206.16;;;17.98;100.00
34241;BME280;20503;50.200;19.508;2023-05-20T10:58:41;102196.43;;;18.51;100.00
34241;BME280;20503;50.200;19.508;2023-05-20T11:03:48;102200.59;;;17.61;100.00
34241;BME280;20503;50.200;19.508;2023-05-20T11:09:02;102202.08;;;17.63;100.00
34241;BME280;20503;50.200;19.508;2023-05-20T11:14:02;102198.59;;;18.12;100.00
34241;BME280;20503;50.200;19.508;2023-05-20T11:19:14;102173.72;;;19.03;100.00
34241;BME280;20503;50.200;19.508;2023-05-20T11:24:24;102179.98;;;18.74;100.00
34241;BME280;20503;50.200;19.508;2023-05-20T11:29:27;102163.45;;;18.61;100.00
34241;BME280;20503;50.200;19.508;2023-05-20T11:34:35;102166.02;;;18.63;100.00
34241;BME280;20503;50.200;19.508;2023-05-20T11:39:41;102154.09;;;18.62;100.00
34241;BME280;20503;50.200;19.508;2023-05-20T11:44:49;102172.27;;;18.27;100.00
34241;BME280;20503;50.200;19.508;2023-05-20T11:49:58;102140.95;;;19.11;100.00
34241;BME280;20503;50.200;19.508;2023-05-20T11:55:09;102149.73;;;18.48;100.00
34241;BME280;20503;50.200;19.508;2023-05-20T12:00:13;102144.45;;;18.40;100.00
34241;BME280;20503;50.200;19.508;2023-05-20T12:05:21;102155.33;;;18.42;100.00
34241;BME280;20503;50.200;19.508;2023-05-20T12:10:29;102141.20;;;18.68;100.00
34241;BME280;20503;50.200;19.508;2023-05-20T12:15:37;102131.20;;;18.42;100.00
34241;BME280;20503;50.200;19.508;2023-05-20T12:20:45;102109.26;;;18.41;100.00
34241;BME280;20503;50.200;19.508;2023-05-20T12:25:52;102138.88;;;18.65;100.00
34241;BME280;20503;50.200;19.508;2023-05-20T12:31:00;102142.65;;;18.95;100.00
34241;BME280;20503;50.200;19.508;2023-05-20T12:36:08;102110.25;;;18.71;100.00
34241;BME280;20503;50.200;19.508;2023-05-20T12:41:16;102118.20;;;19.03;100.00
34241;BME280;20503;50.200;19.508;2023-05-20T12:46:23;102109.09;;;19.50;100.00
34241;BME280;20503;50.200;19.508;2023-05-20T12:51:32;102106.76;;;19.65;100.00
34241;BME280;20503;50.200;19.508;2023-05-20T12:56:39;102095.29;;;19.43;100.00
34241;BME280;20503;50.200;19.508;2023-05-20T13:01:47;102087.43;;;19.40;100.00
34241;BME280;20503;50.200;19.508;2023-05-20T13:06:56;102099.52;;;20.05;100.00
34241;BME280;20503;50.200;19.508;2023-05-20T13:12:04;102091.67;;;20.02;100.00
34241;BME280;20503;50.200;19.508;2023-05-20T13:17:11;102094.36;;;20.20;100.00
34241;BME280;20503;50.200;19.508;2023-05-20T13:22:18;102082.19;;;20.55;100.00
34241;BME280;20503;50.200;19.508;2023-05-20T13:27:26;102076.85;;;20.54;100.00
34241;BME280;20503;50.200;19.508;2023-05-20T13:32:34;102080.58;;;20.25;100.00
34241;BME280;20503;50.200;19.508;2023-05-20T13:37:42;102065.82;;;20.59;100.00
34241;BME280;20503;50.200;19.508;2023-05-20T13:42:50;102060.39;;;20.41;100.00
34241;BME280;20503;50.200;19.508;2023-05-20T13:47:57;102052.77;;;20.94;100.00
34241;BME280;20503;50.200;19.508;2023-05-20T13:53:05;102053.14;;;20.86;100.00
34241;BME280;20503;50.200;19.508;2023-05-20T13:58:13;102037.89;;;20.88;100.00
34241;BME280;20503;50.200;19.508;2023-05-20T14:03:21;102046.30;;;21.04;100.00
34241;BME280;20503;50.200;19.508;2023-05-20T14:08:28;102028.08;;;20.86;100.00
34241;BME280;20503;50.200;19.508;2023-05-20T14:13:36;102034.84;;;20.90;100.00
34241;BME280;20503;50.200;19.508;2023-05-20T14:18:44;102032.91;;;20.79;100.00
34241;BME280;20503;50.200;19.508;2023-05-20T14:23:52;102032.31;;;20.77;100.00
34241;BME280;20503;50.200;19.508;2023-05-20T14:28:59;102010.32;;;21.14;100.00
34241;BME280;20503;50.200;19.508;2023-05-20T14:34:07;102024.71;;;21.51;100.00
34241;BME280;20503;50.200;19.508;2023-05-20T14:39:15;102015.58;;;21.00;100.00
34241;BME280;20503;50.200;19.508;2023-05-20T14:44:23;102008.41;;;21.03;100.00
34241;BME280;20503;50.200;19.508;2023-05-20T14:49:31;102021.23;;;21.04;100.00
34241;BME280;20503;50.200;19.508;2023-05-20T14:54:39;102002.84;;;21.03;100.00
34241;BME280;20503;50.200;19.508;2023-05-20T14:59:47;102002.48;;;21.00;100.00
34241;BME280;20503;50.200;19.508;2023-05-20T15:04:55;102009.86;;;21.06;100.00
34241;BME280;20503;50.200;19.508;2023-05-20T15:10:03;102000.09;;;20.81;100.00
34241;BME280;20503;50.200;19.508;2023-05-20T15:15:11;101996.22;;;20.93;100.00
34241;BME280;20503;50.200;19.508;2023-05-20T15:20:18;101993.43;;;20.93;100.00
34241;BME280;20503;50.200;19.508;2023-05-20T15:25:26;101993.08;;;20.78;100.00
34241;BME280;20503;50.200;19.508;2023-05-20T15:30:34;102001.69;;;20.77;100.00
34241;BME280;20503;50.200;19.508;2023-05-20T15:35:41;101984.52;;;20.57;100.00
34241;BME280;20503;50.200;19.508;2023-05-20T15:40:49;101971.79;;;20.72;100.00
34241;BME280;20503;50.200;19.508;2023-05-20T15:45:57;101970.60;;;20.68;100.00
34241;BME280;20503;50.200;19.508;2023-05-20T15:51:05;101966.85;;;20.63;100.00
34241;BME280;20503;50.200;19.508;2023-05-20T15:56:14;101962.71;;;20.65;100.00
34241;BME280;20503;50.200;19.508;2023-05-20T16:01:21;101962.26;;;20.57;100.00
34241;BME280;20503;50.200;19.508;2023-05-20T16:06:29;101960.93;;;20.59;100.00
34241;BME280;20503;50.200;19.508;2023-05-20T16:11:37;101969.18;;;20.54;100.00
34241;BME280;20503;50.200;19.508;2023-05-20T16:16:45;101972.29;;;20.58;100.00
34241;BME280;20503;50.200;19.508;2023-05-20T16:21:53;101961.65;;;20.55;100.00
34241;BME280;20503;50.200;19.508;2023-05-20T16:27:01;101971.13;;;20.42;100.00
34241;BME280;20503;50.200;19.508;2023-05-20T16:32:09;101959.52;;;20.34;100.00
34241;BME280;20503;50.200;19.508;2023-05-20T16:37:17;101951.06;;;20.29;100.00
34241;BME280;20503;50.200;19.508;2023-05-20T16:42:25;101955.06;;;20.21;100.00
34241;BME280;20503;50.200;19.508;2023-05-20T16:47:33;101949.98;;;20.18;100.00
34241;BME280;20503;50.200;19.508;2023-05-20T16:56:28;101950.34;;;20.10;100.00
34241;BME280;20503;50.200;19.508;2023-05-20T17:01:35;101954.33;;;20.03;100.00
34241;BME280;20503;50.200;19.508;2023-05-20T17:06:43;101940.02;;;19.99;100.00
34241;BME280;20503;50.200;19.508;2023-05-20T17:11:50;101952.48;;;19.97;100.00
34241;BME280;20503;50.200;19.508;2023-05-20T17:16:59;101949.83;;;19.90;100.00
34241;BME280;20503;50.200;19.508;2023-05-20T17:22:06;101961.06;;;19.84;100.00
34241;BME280;20503;50.200;19.508;2023-05-20T17:27:14;101956.32;;;19.73;100.00
34241;BME280;20503;50.200;19.508;2023-05-20T17:32:21;101954.26;;;19.68;100.00
34241;BME280;20503;50.200;19.508;2023-05-20T17:37:29;101955.58;;;19.54;100.00
34241;BME280;20503;50.200;19.508;2023-05-20T17:42:38;101946.13;;;19.44;100.00
34241;BME280;20503;50.200;19.508;2023-05-20T17:47:44;101947.43;;;19.30;100.00
34241;BME280;20503;50.200;19.508;2023-05-20T17:52:52;101950.59;;;19.15;100.00
34241;BME280;20503;50.200;19.508;2023-05-20T17:58:04;101964.43;;;19.04;100.00
34241;BME280;20503;50.200;19.508;2023-05-20T18:03:08;101958.58;;;18.94;100.00
34241;BME280;20503;50.200;19.508;2023-05-20T18:08:16;101966.02;;;18.82;100.00
34241;BME280;20503;50.200;19.508;2023-05-20T18:13:24;101954.62;;;18.72;100.00
34241;BME280;20503;50.200;19.508;2023-05-20T18:18:31;101954.16;;;18.57;100.00
34241;BME280;20503;50.200;19.508;2023-05-20T18:23:39;101949.92;;;18.37;100.00
34241;BME280;20503;50.200;19.508;2023-05-20T18:28:47;101956.90;;;18.21;100.00
34241;BME280;20503;50.200;19.508;2023-05-20T18:33:54;101962.11;;;18.11;100.00
34241;BME280;20503;50.200;19.508;2023-05-20T18:39:02;101958.47;;;17.93;100.00
34241;BME280;20503;50.200;19.508;2023-05-20T18:44:09;101956.49;;;17.75;100.00
34241;BME280;20503;50.200;19.508;2023-05-20T18:49:17;101955.81;;;17.55;100.00
34241;BME280;20503;50.200;19.508;2023-05-20T18:54:25;101959.38;;;17.38;100.00
34241;BME280;20503;50.200;19.508;2023-05-20T18:59:33;101952.58;;;17.27;100.00
34241;BME280;20503;50.200;19.508;2023-05-20T19:04:40;101950.99;;;17.13;100.00
34241;BME280;20503;50.200;19.508;2023-05-20T19:09:48;101950.41;;;17.05;100.00
34241;BME280;20503;50.200;19.508;2023-05-20T19:14:56;101957.05;;;16.98;100.00
34241;BME280;20503;50.200;19.508;2023-05-20T19:20:05;101966.03;;;16.87;100.00
34241;BME280;20503;50.200;19.508;2023-05-20T19:25:11;101969.02;;;16.85;100.00
34241;BME280;20503;50.200;19.508;2023-05-20T19:30:19;101958.41;;;16.76;100.00
34241;BME280;20503;50.200;19.508;2023-05-20T19:35:27;101967.21;;;16.60;100.00
34241;BME280;20503;50.200;19.508;2023-05-20T19:40:34;101975.13;;;16.50;100.00
34241;BME280;20503;50.200;19.508;2023-05-20T19:45:41;101972.58;;;16.48;100.00
34241;BME280;20503;50.200;19.508;2023-05-20T19:50:49;101965.55;;;16.46;100.00
34241;BME280;20503;50.200;19.508;2023-05-20T19:55:57;101965.55;;;16.46;100.00
34241;BME280;20503;50.200;19.508;2023-05-20T20:01:05;101973.63;;;16.54;100.00
34241;BME280;20503;50.200;19.508;2023-05-20T20:06:13;101978.92;;;16.55;100.00
34241;BME280;20503;50.200;19.508;2023-05-20T20:11:20;101977.64;;;16.58;100.00
34241;BME280;20503;50.200;19.508;2023-05-20T20:16:28;101986.82;;;16.52;100.00
34241;BME280;20503;50.200;19.508;2023-05-20T20:21:36;101976.39;;;16.54;100.00
34241;BME280;20503;50.200;19.508;2023-05-20T20:26:44;101970.22;;;16.58;100.00
34241;BME280;20503;50.200;19.508;2023-05-20T20:31:53;101946.59;;;16.56;100.00
34241;BME280;20503;50.200;19.508;2023-05-20T20:36:59;101976.06;;;16.81;100.00
34241;BME280;20503;50.200;19.508;2023-05-20T20:42:07;101966.73;;;16.76;100.00
34241;BME280;20503;50.200;19.508;2023-05-20T20:47:15;101965.27;;;16.73;100.00
34241;BME280;20503;50.200;19.508;2023-05-20T20:52:22;101965.27;;;16.73;100.00
34241;BME280;20503;50.200;19.508;2023-05-20T20:57:29;101964.84;;;16.70;100.00
34241;BME280;20503;50.200;19.508;2023-05-20T21:02:37;101972.28;;;16.69;100.00
34241;BME280;20503;50.200;19.508;2023-05-20T21:07:44;101966.54;;;16.71;100.00
34241;BME280;20503;50.200;19.508;2023-05-20T21:12:52;101957.80;;;16.74;100.00
34241;BME280;20503;50.200;19.508;2023-05-20T21:17:59;101979.30;;;16.72;100.00
34241;BME280;20503;50.200;19.508;2023-05-20T21:23:07;101959.30;;;16.70;100.00
34241;BME280;20503;50.200;19.508;2023-05-20T21:28:15;101959.34;;;16.63;100.00
34241;BME280;20503;50.200;19.508;2023-05-20T21:33:23;101959.34;;;16.63;100.00
34241;BME280;20503;50.200;19.508;2023-05-20T21:38:31;101958.73;;;16.55;100.00
34241;BME280;20503;50.200;19.508;2023-05-20T21:43:39;101957.69;;;16.49;100.00
34241;BME280;20503;50.200;19.508;2023-05-20T21:48:46;101966.40;;;16.53;100.00
34241;BME280;20503;50.200;19.508;2023-05-20T21:53:54;101953.24;;;16.42;100.00
34241;BME280;20503;50.200;19.508;2023-05-20T21:59:02;101945.58;;;16.31;100.00
34241;BME280;20503;50.200;19.508;2023-05-20T22:04:10;101938.80;;;16.20;100.00
34241;BME280;20503;50.200;19.508;2023-05-20T22:09:17;101935.03;;;16.15;100.00
34241;BME280;20503;50.200;19.508;2023-05-20T22:14:24;101936.50;;;16.11;100.00
34241;BME280;20503;50.200;19.508;2023-05-20T22:19:32;101925.45;;;16.11;100.00
34241;BME280;20503;50.200;19.508;2023-05-20T22:24:40;101933.98;;;16.09;100.00
34241;BME280;20503;50.200;19.508;2023-05-20T22:29:47;101935.87;;;16.15;100.00
34241;BME280;20503;50.200;19.508;2023-05-20T22:34:55;101936.93;;;16.14;100.00
34241;BME280;20503;50.200;19.508;2023-05-20T22:40:04;101932.47;;;16.13;100.00
34241;BME280;20503;50.200;19.508;2023-05-20T22:45:11;101933.12;;;16.09;100.00
34241;BME280;20503;50.200;19.508;2023-05-20T22:50:18;101939.27;;;16.04;100.00
34241;BME280;20503;50.200;19.508;2023-05-20T22:55:26;101929.73;;;16.00;100.00
34241;BME280;20503;50.200;19.508;2023-05-20T23:00:34;101924.00;;;16.02;100.00
34241;BME280;20503;50.200;19.508;2023-05-20T23:05:41;101919.95;;;15.98;100.00
34241;BME280;20503;50.200;19.508;2023-05-20T23:10:49;101922.70;;;16.04;100.00
34241;BME280;20503;50.200;19.508;2023-05-20T23:15:57;101918.48;;;16.02;100.00
34241;BME280;20503;50.200;19.508;2023-05-20T23:21:04;101920.17;;;16.03;100.00
34241;BME280;20503;50.200;19.508;2023-05-20T23:26:12;101922.71;;;15.98;100.00
34241;BME280;20503;50.200;19.508;2023-05-20T23:31:20;101918.25;;;15.97;100.00
34241;BME280;20503;50.200;19.508;2023-05-20T23:36:27;101912.52;;;16.05;100.00
34241;BME280;20503;50.200;19.508;2023-05-20T23:41:35;101916.34;;;16.04;100.00
34241;BME280;20503;50.200;19.508;2023-05-20T23:46:42;101903.20;;;15.93;100.00
34241;BME280;20503;50.200;19.508;2023-05-20T23:51:50;101911.26;;;16.01;100.00
34241;BME280;20503;50.200;19.508;2023-05-20T23:56:58;101911.47;;;15.93;100.00
